Time;durP1;ratioP1;P1;durP2;ratioP2;P2;SDS_P1;SDS_P2;PMS_P1;PMS_P2;Temp;Humidity;BMP_temperature;BMP_pressure;BME280_temperature;BME280_humidity;BME280_pressure;Samples;Min_cycle;Max_cycle;Signal;HPM_P1;HPM_P2
2022/08/08 00:01:24;;;;;;;6.28;1.50;;;;;;;;;;5098651;28;20024;-67
2022/08/08 00:03:58;;;;;;;3.40;1.60;;;;;;;;;;5110664;28;20027;-66
2022/08/08 00:06:28;;;;;;;5.05;1.50;;;;;;;;;;5102028;28;20034;-72
2022/08/08 00:09:08;;;;;;;9.18;1.83;;;;;;;;;;5113068;28;20140;-66
2022/08/08 00:11:39;;;;;;;4.38;1.63;;;;;;;;;;5106099;28;20019;-66
2022/08/08 00:14:23;;;;;;;4.68;1.52;;;;;;;;;;5097401;28;20058;-67
2022/08/08 00:17:11;;;;;;;2.00;1.17;;;;;;;;;;5118364;28;20026;-71
2022/08/08 00:19:55;;;;;;;5.57;1.60;;;;;;;;;;5089134;28;20517;-67
2022/08/08 00:22:23;;;;;;;5.07;1.38;;;;;;;;;;5092995;28;20101;-67
2022/08/08 00:24:51;;;;;;;2.92;1.67;;;;;;;;;;5097494;28;20035;-70
2022/08/08 00:27:18;;;;;;;7.15;1.70;;;;;;;;;;5113098;28;20016;-66
2022/08/08 00:29:46;;;;;;;4.90;1.27;;;;;;;;;;5097687;28;20020;-69
2022/08/08 00:32:35;;;;;;;4.15;1.60;;;;;;;;;;5111645;28;20019;-71
2022/08/08 00:35:17;;;;;;;3.88;1.42;;;;;;;;;;5089883;28;20509;-67
2022/08/08 00:37:42;;;;;;;6.00;1.48;;;;;;;;;;5097056;28;20101;-67
2022/08/08 00:40:26;;;;;;;2.90;1.50;;;;;;;;;;5101458;28;20507;-67
2022/08/08 00:42:54;;;;;;;2.45;1.40;;;;;;;;;;5098593;28;20743;-67
2022/08/08 00:45:35;;;;;;;2.47;1.65;;;;;;;;;;5092869;28;20102;-67
2022/08/08 00:48:21;;;;;;;3.65;1.48;;;;;;;;;;5102446;28;20023;-70
2022/08/08 00:51:06;;;;;;;3.00;1.92;;;;;;;;;;5105826;28;20087;-67
2022/08/08 00:53:58;;;;;;;2.67;1.80;;;;;;;;;;5111763;28;20508;-69
2022/08/08 00:56:26;;;;;;;3.95;1.90;;;;;;;;;;5107452;28;20059;-66
2022/08/08 00:58:51;;;;;;;3.63;2.05;;;;;;;;;;5093586;28;20020;-68
2022/08/08 01:01:31;;;;;;;3.90;1.80;;;;;;;;;;5114207;27;20007;-67
2022/08/08 01:04:15;;;;;;;4.72;2.45;;;;;;;;;;5101917;27;20476;-66
2022/08/08 01:07:13;;;;;;;2.95;1.88;;;;;;;;;;5095392;28;20372;-69
2022/08/08 01:09:38;;;;;;;3.78;1.63;;;;;;;;;;5102991;28;20020;-68
2022/08/08 01:12:18;;;;;;;2.50;1.75;;;;;;;;;;5109934;27;20015;-66
2022/08/08 01:15:02;;;;;;;4.30;1.60;;;;;;;;;;5109128;28;20040;-67
2022/08/08 01:17:45;;;;;;;4.00;1.75;;;;;;;;;;5108693;27;20371;-69
2022/08/08 01:20:34;;;;;;;3.20;1.50;;;;;;;;;;5099715;27;20433;-67
2022/08/08 01:23:18;;;;;;;5.68;1.70;;;;;;;;;;5107231;27;20025;-70
2022/08/08 01:25:49;;;;;;;5.00;2.00;;;;;;;;;;5099377;28;20331;-66
2022/08/08 01:28:37;;;;;;;4.47;1.80;;;;;;;;;;5110372;27;20023;-70
2022/08/08 01:31:05;;;;;;;3.20;1.50;;;;;;;;;;5104887;27;20095;-69
2022/08/08 01:33:39;;;;;;;3.08;1.60;;;;;;;;;;5105813;27;20031;-70
2022/08/08 01:36:07;;;;;;;6.22;1.65;;;;;;;;;;5120485;27;20015;-69
2022/08/08 01:38:51;;;;;;;3.80;1.98;;;;;;;;;;5103826;28;20016;-69
2022/08/08 01:41:29;;;;;;;2.38;1.33;;;;;;;;;;5110742;27;20019;-70
2022/08/08 01:44:03;;;;;;;5.32;1.70;;;;;;;;;;5105199;27;20012;-69
2022/08/08 01:46:29;;;;;;;2.53;1.60;;;;;;;;;;5100914;27;20567;-70
2022/08/08 01:48:55;;;;;;;6.55;1.88;;;;;;;;;;5095298;27;20564;-69
2022/08/08 01:51:34;;;;;;;2.55;1.58;;;;;;;;;;5094702;28;20095;-68
2022/08/08 01:54:05;;;;;;;3.85;1.63;;;;;;;;;;5102566;27;20042;-68
2022/08/08 01:56:36;;;;;;;4.10;1.70;;;;;;;;;;5110347;27;20024;-68
2022/08/08 01:59:01;;;;;;;5.60;1.92;;;;;;;;;;5101255;27;20015;-68
2022/08/08 02:01:39;;;;;;;2.93;1.83;;;;;;;;;;5111164;27;20027;-68
2022/08/08 02:04:12;;;;;;;4.22;1.95;;;;;;;;;;5115204;27;20447;-68
2022/08/08 02:06:58;;;;;;;3.50;1.75;;;;;;;;;;5092198;28;20103;-68
2022/08/08 02:09:27;;;;;;;2.25;1.40;;;;;;;;;;5106967;27;20539;-68
2022/08/08 02:11:52;;;;;;;2.40;1.70;;;;;;;;;;5106654;27;20027;-68
2022/08/08 02:14:32;;;;;;;6.25;2.03;;;;;;;;;;5119026;27;20172;-67
2022/08/08 02:16:57;;;;;;;4.70;2.35;;;;;;;;;;5121245;27;20118;-68
2022/08/08 02:19:22;;;;;;;3.88;1.98;;;;;;;;;;5105222;28;20020;-68
2022/08/08 02:24:53;;;;;;;5.40;1.88;;;;;;;;;;5103458;28;20038;-68
2022/08/08 02:27:37;;;;;;;11.27;2.60;;;;;;;;;;5100464;28;20038;-68
2022/08/08 02:30:02;;;;;;;2.53;1.50;;;;;;;;;;5098660;27;21893;-68
2022/08/08 02:32:45;;;;;;;6.00;1.97;;;;;;;;;;5102957;27;20019;-68
2022/08/08 02:35:13;;;;;;;7.20;2.88;;;;;;;;;;5099866;27;20088;-68
2022/08/08 02:37:39;;;;;;;7.20;2.45;;;;;;;;;;5115556;27;20091;-67
2022/08/08 02:40:04;;;;;;;6.38;2.47;;;;;;;;;;5097621;28;20091;-67
2022/08/08 02:42:29;;;;;;;4.97;2.07;;;;;;;;;;5095407;28;20027;-68
2022/08/08 02:45:12;;;;;;;6.13;2.25;;;;;;;;;;5096185;27;20642;-68
2022/08/08 02:47:46;;;;;;;7.03;1.92;;;;;;;;;;5096060;27;20031;-68
2022/08/08 02:50:29;;;;;;;4.72;2.45;;;;;;;;;;5097462;28;21712;-68
2022/08/08 02:52:55;;;;;;;5.97;2.22;;;;;;;;;;5104214;28;20499;-68
2022/08/08 02:55:47;;;;;;;3.22;2.08;;;;;;;;;;5102677;28;20020;-68
2022/08/08 02:58:50;;;;;;;6.47;2.83;;;;;;;;;;5109017;28;20020;-68
2022/08/08 03:01:21;;;;;;;6.55;2.13;;;;;;;;;;5093518;27;20019;-68
2022/08/08 03:03:46;;;;;;;8.80;3.17;;;;;;;;;;5105556;28;20019;-68
2022/08/08 03:06:21;;;;;;;4.25;2.35;;;;;;;;;;5105481;27;20020;-68
2022/08/08 03:08:58;;;;;;;4.00;2.58;;;;;;;;;;5110289;28;20023;-68
2022/08/08 03:11:23;;;;;;;6.07;2.22;;;;;;;;;;5108331;27;20055;-68
2022/08/08 03:14:09;;;;;;;3.33;2.25;;;;;;;;;;5079839;27;20055;-68
2022/08/08 03:16:51;;;;;;;5.20;2.72;;;;;;;;;;5096782;27;20031;-68
2022/08/08 03:19:42;;;;;;;3.75;2.72;;;;;;;;;;5079339;28;20682;-68
2022/08/08 03:22:08;;;;;;;2.90;1.88;;;;;;;;;;5033029;28;20026;-68
2022/08/08 03:24:33;;;;;;;4.07;2.05;;;;;;;;;;5091210;28;20081;-68
2022/08/08 03:27:06;;;;;;;4.27;2.37;;;;;;;;;;5100280;27;20035;-68
2022/08/08 03:29:34;;;;;;;4.13;2.30;;;;;;;;;;5097743;27;20266;-68
2022/08/08 03:34:43;;;;;;;7.32;2.40;;;;;;;;;;5098556;28;20054;-69
2022/08/08 03:37:10;;;;;;;2.92;2.08;;;;;;;;;;5102614;28;20531;-69
2022/08/08 03:39:35;;;;;;;2.65;1.90;;;;;;;;;;5101650;28;20530;-68
2022/08/08 03:42:00;;;;;;;4.20;2.27;;;;;;;;;;5092038;27;20023;-68
2022/08/08 03:44:30;;;;;;;3.77;2.30;;;;;;;;;;5088834;28;20358;-68
2022/08/08 03:46:55;;;;;;;5.93;2.20;;;;;;;;;;5094531;28;20304;-68
2022/08/08 03:49:25;;;;;;;5.97;2.00;;;;;;;;;;5105727;27;20048;-68
2022/08/08 03:51:54;;;;;;;5.22;2.28;;;;;;;;;;5098517;28;20295;-68
2022/08/08 03:54:20;;;;;;;3.45;2.20;;;;;;;;;;5096476;28;20034;-68
2022/08/08 03:56:45;;;;;;;4.40;2.53;;;;;;;;;;5102002;28;20019;-68
2022/08/08 03:59:11;;;;;;;3.60;2.28;;;;;;;;;;5091862;28;20111;-68
2022/08/08 04:01:37;;;;;;;5.38;2.17;;;;;;;;;;5104312;28;20498;-68
2022/08/08 04:04:02;;;;;;;3.42;2.10;;;;;;;;;;5109199;28;20019;-68
2022/08/08 04:06:28;;;;;;;4.05;2.40;;;;;;;;;;5095940;28;20104;-68
2022/08/08 04:08:53;;;;;;;4.18;2.50;;;;;;;;;;5106777;28;20095;-68
2022/08/08 04:11:18;;;;;;;4.83;2.40;;;;;;;;;;5088893;28;20461;-68
2022/08/08 04:13:43;;;;;;;4.03;2.40;;;;;;;;;;5098717;28;20266;-68
2022/08/08 04:16:09;;;;;;;8.93;2.25;;;;;;;;;;5110983;28;20035;-68
2022/08/08 04:18:34;;;;;;;5.83;2.63;;;;;;;;;;5109090;28;20038;-68
2022/08/08 04:20:59;;;;;;;7.95;2.65;;;;;;;;;;5096311;28;20353;-68
2022/08/08 04:23:24;;;;;;;8.68;2.75;;;;;;;;;;5108810;28;20131;-68
2022/08/08 04:25:49;;;;;;;9.97;2.40;;;;;;;;;;5096213;28;20062;-68
2022/08/08 04:28:15;;;;;;;2.90;2.28;;;;;;;;;;5095402;28;20288;-68
2022/08/08 04:30:40;;;;;;;6.05;2.40;;;;;;;;;;5103302;28;20030;-68
2022/08/08 04:33:05;;;;;;;4.93;2.45;;;;;;;;;;5107032;27;20384;-68
2022/08/08 04:35:30;;;;;;;5.17;2.80;;;;;;;;;;5097693;28;20480;-68
2022/08/08 04:37:55;;;;;;;6.38;2.85;;;;;;;;;;5111518;27;20266;-68
2022/08/08 04:40:20;;;;;;;5.43;2.57;;;;;;;;;;5100212;28;20027;-68
2022/08/08 04:42:46;;;;;;;4.00;2.22;;;;;;;;;;5113260;27;20259;-68
2022/08/08 04:45:12;;;;;;;4.70;2.50;;;;;;;;;;5098227;28;20015;-68
2022/08/08 04:47:37;;;;;;;5.15;2.70;;;;;;;;;;5106431;28;20027;-68
2022/08/08 04:50:02;;;;;;;4.32;2.45;;;;;;;;;;5108031;28;20503;-68
2022/08/08 04:52:27;;;;;;;6.07;1.90;;;;;;;;;;5112256;27;20019;-68
2022/08/08 04:54:53;;;;;;;3.37;2.40;;;;;;;;;;5103916;27;20422;-68
2022/08/08 04:57:18;;;;;;;4.20;2.53;;;;;;;;;;5129961;22;20309;-63
2022/08/08 04:59:43;;;;;;;5.07;2.78;;;;;;;;;;5110675;28;20356;-63
2022/08/08 05:02:09;;;;;;;5.55;3.35;;;;;;;;;;5110846;28;20426;-63
2022/08/08 05:04:34;;;;;;;5.00;2.38;;;;;;;;;;5110000;28;20467;-63
2022/08/08 05:06:59;;;;;;;4.35;2.55;;;;;;;;;;5095896;28;20019;-63
2022/08/08 05:09:24;;;;;;;8.18;2.53;;;;;;;;;;5089484;28;20399;-63
2022/08/08 05:11:50;;;;;;;5.87;2.40;;;;;;;;;;5092036;28;20357;-63
2022/08/08 05:14:15;;;;;;;6.90;3.33;;;;;;;;;;5091012;28;20420;-63
2022/08/08 05:16:41;;;;;;;7.40;2.70;;;;;;;;;;5091443;28;20472;-63
2022/08/08 05:19:11;;;;;;;5.32;2.72;;;;;;;;;;5091313;28;20016;-63
2022/08/08 05:21:36;;;;;;;6.95;3.63;;;;;;;;;;5092730;28;20015;-63
2022/08/08 05:24:02;;;;;;;3.97;2.85;;;;;;;;;;5086467;28;20028;-65
2022/08/08 05:26:27;;;;;;;10.75;2.95;;;;;;;;;;5091957;28;20009;-65
2022/08/08 05:28:52;;;;;;;6.10;3.47;;;;;;;;;;5070882;28;20430;-65
2022/08/08 05:31:17;;;;;;;13.07;3.87;;;;;;;;;;5092354;28;20268;-65
2022/08/08 05:33:43;;;;;;;19.17;4.43;;;;;;;;;;5088910;28;20277;-65
2022/08/08 05:36:09;;;;;;;10.20;4.65;;;;;;;;;;5083764;28;20463;-65
2022/08/08 05:38:35;;;;;;;10.85;3.88;;;;;;;;;;5086879;28;20020;-65
2022/08/08 05:41:01;;;;;;;14.57;4.25;;;;;;;;;;5090321;28;20016;-65
2022/08/08 05:43:27;;;;;;;11.82;3.95;;;;;;;;;;5087597;28;20058;-65
2022/08/08 05:46:00;;;;;;;22.17;5.25;;;;;;;;;;5089531;28;20403;-65
2022/08/08 05:48:25;;;;;;;37.83;6.40;;;;;;;;;;5086873;28;20480;-65
2022/08/08 05:50:51;;;;;;;29.98;6.93;;;;;;;;;;5088123;28;20131;-65
2022/08/08 05:53:16;;;;;;;23.73;5.40;;;;;;;;;;5087739;28;20026;-65
2022/08/08 05:55:43;;;;;;;15.50;4.85;;;;;;;;;;5087422;28;20103;-65
2022/08/08 05:58:09;;;;;;;21.50;5.72;;;;;;;;;;5086017;28;20375;-65
2022/08/08 06:00:36;;;;;;;20.48;5.28;;;;;;;;;;5088437;28;20456;-65
2022/08/08 06:03:10;;;;;;;15.88;4.63;;;;;;;;;;5087018;28;20036;-65
2022/08/08 06:05:39;;;;;;;12.77;4.72;;;;;;;;;;5088371;28;20027;-65
2022/08/08 06:08:04;;;;;;;10.43;4.72;;;;;;;;;;5089689;28;20023;-65
2022/08/08 06:10:31;;;;;;;14.40;5.20;;;;;;;;;;5090498;28;20020;-65
2022/08/08 06:12:56;;;;;;;10.98;4.70;;;;;;;;;;5090249;28;20514;-65
2022/08/08 06:15:22;;;;;;;13.57;5.23;;;;;;;;;;5088845;28;20063;-65
2022/08/08 06:17:48;;;;;;;15.88;5.07;;;;;;;;;;5088151;28;20269;-65
2022/08/08 06:20:13;;;;;;;11.18;4.38;;;;;;;;;;5089426;28;20020;-65
2022/08/08 06:22:39;;;;;;;11.70;4.23;;;;;;;;;;5088988;28;20035;-65
2022/08/08 06:25:04;;;;;;;32.05;6.88;;;;;;;;;;5088838;28;20927;-65
2022/08/08 06:27:35;;;;;;;8.00;3.75;;;;;;;;;;5090598;28;20507;-65
2022/08/08 06:30:00;;;;;;;;;;;;;;;;;;5088607;28;20020;-65
2022/08/08 06:32:30;;;;;;;7.30;3.80;;;;;;;;;;5085010;28;19915;-65
2022/08/08 06:34:58;;;;;;;13.93;4.10;;;;;;;;;;5088273;28;20020;-65
2022/08/08 06:37:25;;;;;;;13.98;4.20;;;;;;;;;;5088902;28;20507;-65
2022/08/08 06:39:53;;;;;;;15.55;4.32;;;;;;;;;;5089674;28;20413;-65
2022/08/08 06:42:19;;;;;;;21.17;3.83;;;;;;;;;;5090472;28;20103;-65
2022/08/08 06:44:48;;;;;;;10.77;4.10;;;;;;;;;;5093778;28;20103;-63
2022/08/08 06:47:13;;;;;;;11.10;3.90;;;;;;;;;;5086932;28;20099;-63
2022/08/08 06:49:40;;;;;;;9.75;3.88;;;;;;;;;;5089739;28;20139;-63
2022/08/08 06:52:06;;;;;;;9.55;3.83;;;;;;;;;;5087760;28;20016;-65
2022/08/08 06:54:31;;;;;;;6.28;3.60;;;;;;;;;;5089229;28;20884;-65
2022/08/08 06:56:58;;;;;;;13.38;4.03;;;;;;;;;;5078971;28;20085;-65
2022/08/08 06:59:23;;;;;;;9.18;3.28;;;;;;;;;;5072975;28;20732;-65
2022/08/08 07:01:51;;;;;;;9.60;3.58;;;;;;;;;;5073413;28;20032;-65
2022/08/08 07:04:28;;;;;;;10.75;4.20;;;;;;;;;;5071662;28;20015;-63
2022/08/08 07:06:54;;;;;;;8.15;3.75;;;;;;;;;;5087050;28;20020;-63
2022/08/08 07:09:20;;;;;;;6.72;3.25;;;;;;;;;;5088606;28;20016;-65
2022/08/08 07:11:47;;;;;;;7.63;3.03;;;;;;;;;;5087693;28;20020;-65
2022/08/08 07:14:15;;;;;;;9.43;3.20;;;;;;;;;;5090208;28;20100;-65
2022/08/08 07:17:01;;;;;;;12.68;3.65;;;;;;;;;;5087596;28;20028;-65
2022/08/08 07:19:32;;;;;;;8.32;3.13;;;;;;;;;;5088684;28;20016;-63
2022/08/08 07:22:05;;;;;;;10.40;3.08;;;;;;;;;;5086259;28;20028;-63
2022/08/08 07:24:36;;;;;;;10.85;3.08;;;;;;;;;;5086429;28;20510;-65
2022/08/08 07:27:03;;;;;;;6.80;3.17;;;;;;;;;;5087424;28;22488;-65
2022/08/08 07:29:29;;;;;;;8.88;2.42;;;;;;;;;;5087405;28;20028;-65
2022/08/08 07:31:54;;;;;;;6.40;2.70;;;;;;;;;;5087618;28;20031;-64
2022/08/08 07:34:19;;;;;;;9.20;2.65;;;;;;;;;;5083389;28;20357;-64
2022/08/08 07:36:47;;;;;;;10.02;2.40;;;;;;;;;;5088597;28;20536;-64
2022/08/08 07:39:13;;;;;;;11.85;3.00;;;;;;;;;;5086821;28;20025;-64
2022/08/08 07:41:40;;;;;;;6.68;3.58;;;;;;;;;;5088206;28;20069;-64
2022/08/08 07:44:06;;;;;;;5.53;2.85;;;;;;;;;;5088338;28;20027;-64
2022/08/08 07:46:32;;;;;;;11.60;2.85;;;;;;;;;;5084627;28;20080;-65
2022/08/08 07:48:57;;;;;;;8.67;2.90;;;;;;;;;;5086352;28;20020;-64
2022/08/08 07:51:23;;;;;;;4.28;2.40;;;;;;;;;;5088903;28;20047;-64
2022/08/08 07:54:11;;;;;;;6.35;3.08;;;;;;;;;;5090056;28;20028;-64
2022/08/08 07:56:46;;;;;;;7.07;2.45;;;;;;;;;;5081420;28;20135;-64
2022/08/08 07:59:15;;;;;;;8.95;3.33;;;;;;;;;;5078702;28;20107;-64
2022/08/08 08:01:44;;;;;;;3.42;2.53;;;;;;;;;;5087555;28;20036;-64
2022/08/08 08:04:12;;;;;;;43.55;3.75;;;;;;;;;;5087730;28;20024;-64
2022/08/08 08:06:39;;;;;;;4.63;2.70;;;;;;;;;;5088998;28;20047;-64
2022/08/08 08:09:04;;;;;;;9.70;3.05;;;;;;;;;;5090375;28;20062;-65
2022/08/08 08:11:32;;;;;;;8.67;2.60;;;;;;;;;;5080286;28;20013;-65
2022/08/08 08:14:04;;;;;;;4.10;2.40;;;;;;;;;;5091816;28;20056;-64
2022/08/08 08:16:33;;;;;;;8.82;2.63;;;;;;;;;;5074831;28;20024;-64
2022/08/08 08:18:58;;;;;;;6.18;2.55;;;;;;;;;;5093690;28;20023;-64
2022/08/08 08:21:24;;;;;;;7.15;3.10;;;;;;;;;;5093394;28;20020;-64
2022/08/08 08:23:49;;;;;;;6.47;2.85;;;;;;;;;;5094239;28;20016;-64
2022/08/08 08:26:17;;;;;;;4.43;2.73;;;;;;;;;;5094623;28;20527;-64
2022/08/08 08:28:42;;;;;;;5.85;2.80;;;;;;;;;;5090012;28;20028;-64
2022/08/08 08:31:07;;;;;;;8.87;3.20;;;;;;;;;;5092440;28;20065;-64
2022/08/08 08:33:33;;;;;;;5.63;2.53;;;;;;;;;;5092203;28;20031;-65
2022/08/08 08:35:58;;;;;;;8.18;2.90;;;;;;;;;;5093859;28;20047;-66
2022/08/08 08:38:24;;;;;;;4.95;2.42;;;;;;;;;;5091594;28;20361;-64
2022/08/08 08:40:49;;;;;;;7.30;2.60;;;;;;;;;;5092229;28;20012;-64
2022/08/08 08:43:18;;;;;;;4.28;2.58;;;;;;;;;;5092819;28;20277;-64
2022/08/08 08:45:45;;;;;;;8.35;3.00;;;;;;;;;;5091563;28;20156;-64
2022/08/08 08:48:11;;;;;;;16.80;2.80;;;;;;;;;;5091305;28;20032;-64
2022/08/08 08:50:36;;;;;;;7.10;2.63;;;;;;;;;;5090710;28;20027;-63
2022/08/08 08:53:04;;;;;;;6.28;2.78;;;;;;;;;;5093108;28;20016;-63
2022/08/08 08:55:29;;;;;;;6.97;2.38;;;;;;;;;;5092381;28;20023;-63
2022/08/08 08:57:55;;;;;;;3.45;1.95;;;;;;;;;;5090186;28;20028;-63
2022/08/08 09:00:20;;;;;;;3.90;2.30;;;;;;;;;;5091749;28;20020;-63
2022/08/08 09:02:46;;;;;;;5.43;2.10;;;;;;;;;;5091928;28;20027;-63
2022/08/08 09:05:11;;;;;;;4.07;1.95;;;;;;;;;;5093676;28;20016;-63
2022/08/08 09:07:39;;;;;;;3.45;1.85;;;;;;;;;;5086926;28;20389;-63
2022/08/08 09:10:04;;;;;;;10.88;2.10;;;;;;;;;;5090466;28;20020;-63
2022/08/08 09:12:31;;;;;;;4.53;1.35;;;;;;;;;;5088233;28;20543;-63
2022/08/08 09:14:56;;;;;;;1.98;1.00;;;;;;;;;;5090625;28;20046;-64
2022/08/08 09:17:25;;;;;;;2.70;1.55;;;;;;;;;;5089374;28;20468;-64
2022/08/08 09:19:55;;;;;;;4.38;1.33;;;;;;;;;;5091625;28;20077;-64
2022/08/08 09:22:21;;;;;;;3.33;1.50;;;;;;;;;;5089291;28;20062;-64
2022/08/08 09:24:47;;;;;;;7.85;1.50;;;;;;;;;;5091021;28;20044;-64
2022/08/08 09:27:12;;;;;;;4.32;1.27;;;;;;;;;;5087684;28;20024;-64
2022/08/08 09:29:41;;;;;;;11.43;1.77;;;;;;;;;;5075910;28;20261;-64
2022/08/08 09:32:06;;;;;;;1.92;1.38;;;;;;;;;;5091598;28;20016;-64
2022/08/08 09:34:33;;;;;;;3.75;1.55;;;;;;;;;;5091330;28;20024;-64
2022/08/08 09:37:08;;;;;;;2.70;1.30;;;;;;;;;;5090988;28;20541;-64
2022/08/08 09:39:40;;;;;;;2.97;1.23;;;;;;;;;;5091369;28;20095;-64
2022/08/08 09:42:09;;;;;;;3.10;1.25;;;;;;;;;;5090053;28;20020;-64
2022/08/08 09:44:44;;;;;;;5.68;1.05;;;;;;;;;;5087424;28;20023;-64
2022/08/08 09:47:12;;;;;;;2.40;2.00;;;;;;;;;;5090521;28;20024;-64
2022/08/08 09:49:38;;;;;;;2.78;1.20;;;;;;;;;;5089502;28;20020;-64
2022/08/08 09:52:03;;;;;;;2.08;1.13;;;;;;;;;;5091307;28;20023;-64
2022/08/08 09:54:40;;;;;;;3.38;1.10;;;;;;;;;;5087593;28;20027;-66
2022/08/08 09:57:07;;;;;;;6.10;1.58;;;;;;;;;;5084656;28;20020;-64
2022/08/08 09:59:34;;;;;;;3.72;1.20;;;;;;;;;;5089821;28;20016;-64
2022/08/08 10:02:01;;;;;;;1.73;1.10;;;;;;;;;;5090085;28;20116;-64
2022/08/08 10:04:26;;;;;;;2.78;1.48;;;;;;;;;;5088445;28;20073;-64
2022/08/08 10:06:52;;;;;;;2.43;1.33;;;;;;;;;;5087498;28;20020;-64
2022/08/08 10:09:38;;;;;;;2.00;1.20;;;;;;;;;;5090404;28;20050;-64
2022/08/08 10:12:03;;;;;;;4.03;1.15;;;;;;;;;;5088293;28;20089;-66
2022/08/08 10:14:32;;;;;;;4.25;1.30;;;;;;;;;;5090157;28;20032;-66
2022/08/08 10:16:57;;;;;;;2.60;1.40;;;;;;;;;;5089489;28;20100;-64
2022/08/08 10:19:32;;;;;;;3.88;1.30;;;;;;;;;;5089779;28;20402;-64
2022/08/08 10:21:58;;;;;;;4.60;1.60;;;;;;;;;;5087132;28;20020;-64
2022/08/08 10:24:23;;;;;;;1.63;1.15;;;;;;;;;;5088574;28;20023;-64
2022/08/08 10:26:51;;;;;;;2.40;1.30;;;;;;;;;;5088460;28;20067;-66
2022/08/08 10:29:37;;;;;;;5.13;1.40;;;;;;;;;;5087911;28;20085;-66
2022/08/08 10:34:56;;;;;;;2.35;1.48;;;;;;;;;;5085608;28;20101;-64
2022/08/08 10:37:25;;;;;;;3.22;1.90;;;;;;;;;;5089296;28;20020;-64
2022/08/08 10:39:50;;;;;;;6.07;1.50;;;;;;;;;;5085879;28;20020;-64
2022/08/08 10:42:17;;;;;;;2.67;1.80;;;;;;;;;;5089624;28;20537;-64
2022/08/08 10:44:43;;;;;;;5.28;1.67;;;;;;;;;;5086818;28;20327;-64
2022/08/08 10:47:12;;;;;;;2.30;1.33;;;;;;;;;;5087390;28;20028;-64
2022/08/08 10:49:39;;;;;;;2.10;1.17;;;;;;;;;;5086965;28;20024;-64
2022/08/08 10:52:04;;;;;;;8.18;1.52;;;;;;;;;;5086050;28;20305;-64
2022/08/08 10:54:29;;;;;;;3.67;1.38;;;;;;;;;;5088820;28;20432;-65
2022/08/08 10:56:56;;;;;;;4.38;1.30;;;;;;;;;;5104798;22;20035;-68
2022/08/08 10:59:21;;;;;;;5.43;1.48;;;;;;;;;;5103605;28;20076;-69
2022/08/08 11:01:46;;;;;;;3.63;1.40;;;;;;;;;;5100424;28;20020;-69
2022/08/08 11:04:11;;;;;;;2.30;1.10;;;;;;;;;;5084780;28;20015;-68
2022/08/08 11:06:37;;;;;;;5.25;1.38;;;;;;;;;;5104218;28;20115;-69
2022/08/08 11:09:06;;;;;;;9.25;1.50;;;;;;;;;;5097777;28;20015;-69
2022/08/08 11:11:39;;;;;;;2.83;1.98;;;;;;;;;;5105091;28;20462;-68
2022/08/08 11:14:04;;;;;;;6.05;1.75;;;;;;;;;;5102152;28;20479;-68
2022/08/08 11:16:31;;;;;;;2.80;1.27;;;;;;;;;;5083121;28;20020;-69
2022/08/08 11:18:58;;;;;;;1.83;1.02;;;;;;;;;;5107874;28;20022;-69
2022/08/08 11:21:23;;;;;;;3.25;1.15;;;;;;;;;;5105450;28;20532;-69
2022/08/08 11:23:49;;;;;;;2.20;1.37;;;;;;;;;;5102690;28;20036;-69
2022/08/08 11:26:19;;;;;;;7.03;1.60;;;;;;;;;;5102027;28;20889;-68
2022/08/08 11:28:44;;;;;;;3.10;1.17;;;;;;;;;;5106293;28;20027;-69
2022/08/08 11:31:13;;;;;;;3.90;1.40;;;;;;;;;;5106280;28;20027;-69
2022/08/08 11:33:39;;;;;;;5.75;1.55;;;;;;;;;;5103535;28;20035;-69
2022/08/08 11:36:04;;;;;;;1.88;1.45;;;;;;;;;;5095150;28;20034;-69
2022/08/08 11:38:30;;;;;;;5.10;1.80;;;;;;;;;;5106914;28;20016;-69
2022/08/08 11:40:56;;;;;;;8.73;1.45;;;;;;;;;;5106517;28;20031;-68
2022/08/08 11:43:21;;;;;;;6.63;1.40;;;;;;;;;;5101557;28;20016;-69
2022/08/08 11:45:49;;;;;;;10.45;1.77;;;;;;;;;;5105259;28;20031;-68
2022/08/08 11:48:14;;;;;;;7.50;1.83;;;;;;;;;;5101552;28;20036;-69
2022/08/08 11:50:40;;;;;;;2.88;1.65;;;;;;;;;;5099896;28;20483;-69
2022/08/08 11:53:05;;;;;;;7.22;1.90;;;;;;;;;;5108842;28;20019;-68
2022/08/08 11:55:34;;;;;;;4.13;1.60;;;;;;;;;;5098880;28;20027;-68
2022/08/08 11:58:04;;;;;;;2.42;1.65;;;;;;;;;;5101923;28;20410;-68
2022/08/08 12:00:29;;;;;;;6.00;2.03;;;;;;;;;;5107791;28;20012;-69
2022/08/08 12:02:56;;;;;;;6.40;2.10;;;;;;;;;;5102952;28;20027;-69
2022/08/08 12:05:34;;;;;;;7.75;2.08;;;;;;;;;;5099606;28;20024;-69
2022/08/08 12:08:00;;;;;;;7.80;2.40;;;;;;;;;;5101396;28;20015;-68
2022/08/08 12:10:27;;;;;;;3.83;2.37;;;;;;;;;;5107582;28;20064;-69
2022/08/08 12:13:01;;;;;;;6.95;2.20;;;;;;;;;;5106761;28;20027;-69
2022/08/08 12:15:39;;;;;;;2.65;1.67;;;;;;;;;;5105457;28;20395;-68
2022/08/08 12:18:25;;;;;;;8.70;2.28;;;;;;;;;;5102678;28;20271;-69
2022/08/08 12:20:50;;;;;;;11.25;2.72;;;;;;;;;;5101993;28;20052;-69
2022/08/08 12:23:35;;;;;;;8.40;3.35;;;;;;;;;;5101114;28;20058;-69
2022/08/08 12:26:10;;;;;;;8.90;2.70;;;;;;;;;;5095543;28;20023;-68
2022/08/08 12:28:35;;;;;;;3.70;2.63;;;;;;;;;;5098479;28;20019;-68
2022/08/08 12:31:07;;;;;;;8.80;2.40;;;;;;;;;;5102045;28;20077;-69
2022/08/08 12:33:33;;;;;;;8.10;2.10;;;;;;;;;;5081915;28;20062;-69
2022/08/08 12:36:08;;;;;;;12.73;2.65;;;;;;;;;;5100135;28;20024;-68
2022/08/08 12:38:43;;;;;;;17.52;2.80;;;;;;;;;;5102807;28;20042;-69
2022/08/08 12:41:11;;;;;;;4.35;2.75;;;;;;;;;;5101014;28;20049;-69
2022/08/08 12:43:36;;;;;;;4.80;2.75;;;;;;;;;;5106579;28;20072;-69
2022/08/08 12:46:12;;;;;;;3.37;2.33;;;;;;;;;;5100594;28;20019;-68
2022/08/08 12:48:37;;;;;;;4.97;2.60;;;;;;;;;;5099878;28;20020;-68
2022/08/08 12:51:02;;;;;;;6.87;2.70;;;;;;;;;;5101987;28;20479;-69
2022/08/08 12:53:29;;;;;;;9.50;2.67;;;;;;;;;;5102813;28;20104;-69
2022/08/08 12:55:55;;;;;;;7.30;2.20;;;;;;;;;;5104142;28;20034;-68
2022/08/08 12:58:21;;;;;;;5.75;2.40;;;;;;;;;;5102797;28;20246;-69
2022/08/08 13:00:47;;;;;;;9.43;2.60;;;;;;;;;;5103736;28;20098;-69
2022/08/08 13:03:21;;;;;;;7.63;3.20;;;;;;;;;;5102646;28;20434;-69
2022/08/08 13:05:46;;;;;;;7.00;2.30;;;;;;;;;;5102357;28;20031;-69
2022/08/08 13:08:16;;;;;;;6.60;2.47;;;;;;;;;;5111841;28;20514;-69
2022/08/08 13:10:46;;;;;;;14.88;4.57;;;;;;;;;;5111066;28;20111;-69
2022/08/08 13:13:25;;;;;;;4.80;2.40;;;;;;;;;;5103454;28;20495;-69
2022/08/08 13:15:50;;;;;;;7.07;2.72;;;;;;;;;;5100157;28;20036;-69
2022/08/08 13:18:15;;;;;;;8.40;2.83;;;;;;;;;;5103897;28;20016;-69
2022/08/08 13:20:46;;;;;;;5.00;2.00;;;;;;;;;;5110010;28;20567;-69
2022/08/08 13:23:16;;;;;;;7.28;2.55;;;;;;;;;;5110046;27;20030;-69
2022/08/08 13:25:41;;;;;;;3.15;2.00;;;;;;;;;;5098186;28;20039;-69
2022/08/08 13:28:07;;;;;;;4.25;2.45;;;;;;;;;;5100499;28;20020;-69
2022/08/08 13:30:32;;;;;;;5.90;2.13;;;;;;;;;;5104603;28;20019;-69
2022/08/08 13:32:58;;;;;;;5.80;2.77;;;;;;;;;;5103157;28;20287;-68
2022/08/08 13:35:26;;;;;;;6.20;2.35;;;;;;;;;;5106689;28;20087;-69
2022/08/08 13:37:58;;;;;;;6.43;2.20;;;;;;;;;;5102298;28;20035;-69
2022/08/08 13:40:23;;;;;;;6.38;2.58;;;;;;;;;;5102099;28;20039;-69
2022/08/08 13:42:48;;;;;;;4.30;2.47;;;;;;;;;;5105291;28;20058;-69
2022/08/08 13:45:18;;;;;;;7.32;2.80;;;;;;;;;;5106389;28;20019;-69
2022/08/08 13:47:54;;;;;;;4.18;2.20;;;;;;;;;;5096838;28;20043;-69
2022/08/08 13:50:20;;;;;;;3.30;2.05;;;;;;;;;;5106326;28;20483;-69
2022/08/08 13:52:45;;;;;;;6.93;2.73;;;;;;;;;;5108221;28;20061;-69
2022/08/08 13:55:10;;;;;;;9.50;2.50;;;;;;;;;;5098986;28;20293;-69
2022/08/08 13:57:36;;;;;;;5.05;2.25;;;;;;;;;;5104295;28;20077;-69
2022/08/08 14:00:11;;;;;;;5.75;2.45;;;;;;;;;;5103434;28;20145;-69
2022/08/08 14:02:37;;;;;;;5.10;2.13;;;;;;;;;;5104663;28;20012;-69
2022/08/08 14:05:04;;;;;;;8.27;2.47;;;;;;;;;;5104482;28;20019;-69
2022/08/08 14:07:33;;;;;;;3.28;2.10;;;;;;;;;;5109049;28;20034;-69
2022/08/08 14:10:09;;;;;;;12.60;2.42;;;;;;;;;;5105288;28;20084;-69
2022/08/08 14:12:35;;;;;;;5.90;2.10;;;;;;;;;;5108169;28;20494;-69
2022/08/08 14:15:01;;;;;;;7.47;2.13;;;;;;;;;;5107476;28;20023;-69
2022/08/08 14:17:26;;;;;;;6.18;2.22;;;;;;;;;;5103883;28;20375;-69
2022/08/08 14:19:59;;;;;;;5.50;2.13;;;;;;;;;;5103658;28;20031;-68
2022/08/08 14:22:25;;;;;;;5.35;2.30;;;;;;;;;;5098749;28;20359;-69
2022/08/08 14:24:50;;;;;;;5.47;1.90;;;;;;;;;;5102238;28;20055;-69
2022/08/08 14:27:16;;;;;;;7.57;2.23;;;;;;;;;;5104032;28;20108;-69
2022/08/08 14:29:51;;;;;;;5.70;2.47;;;;;;;;;;5099585;28;20332;-69
2022/08/08 14:32:17;;;;;;;4.90;2.03;;;;;;;;;;5095099;28;20548;-69
2022/08/08 14:34:42;;;;;;;3.60;2.15;;;;;;;;;;5107553;28;20063;-69
2022/08/08 14:37:07;;;;;;;2.60;1.83;;;;;;;;;;5097960;28;20384;-69
2022/08/08 14:39:39;;;;;;;3.57;2.17;;;;;;;;;;5101878;28;20268;-69
2022/08/08 14:42:07;;;;;;;3.97;1.95;;;;;;;;;;5102791;28;20273;-69
2022/08/08 14:44:33;;;;;;;5.93;2.40;;;;;;;;;;5104649;28;20024;-69
2022/08/08 14:46:58;;;;;;;4.13;2.53;;;;;;;;;;5098769;28;20197;-69
2022/08/08 14:49:31;;;;;;;7.17;3.37;;;;;;;;;;5110647;28;20073;-69
2022/08/08 14:52:05;;;;;;;5.03;2.67;;;;;;;;;;5106911;28;20269;-69
2022/08/08 14:54:30;;;;;;;4.10;2.05;;;;;;;;;;5094884;28;20047;-68
2022/08/08 14:56:56;;;;;;;6.83;2.47;;;;;;;;;;5105764;28;20444;-69
2022/08/08 14:59:22;;;;;;;4.75;2.38;;;;;;;;;;5103941;28;20023;-69
2022/08/08 15:01:47;;;;;;;3.85;2.05;;;;;;;;;;5102718;28;20023;-69